sensor_id;sensor_type;location;lat;lon;timestamp;pressure;altitude;pressure_sealevel;temperature;humidity
11345;BME280;5727;42.600;23.028;2022-08-04T00:02:32;93847.91;;;19.24;100.00
11345;BME280;5727;42.600;23.028;2022-08-04T00:05:06;93854.38;;;19.23;100.00
11345;BME280;5727;42.600;23.028;2022-08-04T00:07:39;93849.41;;;19.14;100.00
11345;BME280;5727;42.600;23.028;2022-08-04T00:10:08;93852.78;;;19.04;100.00
11345;BME280;5727;42.600;23.028;2022-08-04T00:12:37;93852.06;;;19.03;100.00
11345;BME280;5727;42.600;23.028;2022-08-04T00:15:10;93854.31;;;19.05;100.00
11345;BME280;5727;42.600;23.028;2022-08-04T00:17:43;93860.75;;;19.04;100.00
11345;BME280;5727;42.600;23.028;2022-08-04T00:20:16;93849.00;;;19.05;100.00
11345;BME280;5727;42.600;23.028;2022-08-04T00:22:45;93845.97;;;19.03;100.00
11345;BME280;5727;42.600;23.028;2022-08-04T00:25:13;93848.25;;;19.01;100.00
11345;BME280;5727;42.600;23.028;2022-08-04T00:27:40;93850.13;;;19.00;100.00
11345;BME280;5727;42.600;23.028;2022-08-04T00:30:07;93851.63;;;18.94;100.00
11345;BME280;5727;42.600;23.028;2022-08-04T00:32:35;93850.09;;;18.90;100.00
11345;BME280;5727;42.600;23.028;2022-08-04T00:35:02;93849.66;;;18.77;100.00
11345;BME280;5727;42.600;23.028;2022-08-04T00:37:30;93852.31;;;18.77;100.00
11345;BME280;5727;42.600;23.028;2022-08-04T00:39:58;93850.03;;;18.76;100.00
11345;BME280;5727;42.600;23.028;2022-08-04T00:42:33;93851.56;;;18.77;100.00
11345;BME280;5727;42.600;23.028;2022-08-04T00:48:05;93856.09;;;18.76;100.00
11345;BME280;5727;42.600;23.028;2022-08-04T00:50:43;93856.81;;;18.70;100.00
11345;BME280;5727;42.600;23.028;2022-08-04T00:53:13;93852.25;;;18.63;100.00
11345;BME280;5727;42.600;23.028;2022-08-04T00:56:04;93850.31;;;18.57;100.00
11345;BME280;5727;42.600;23.028;2022-08-04T00:58:56;93852.19;;;18.49;100.00
11345;BME280;5727;42.600;23.028;2022-08-04T01:01:42;93857.47;;;18.46;100.00
11345;BME280;5727;42.600;23.028;2022-08-04T01:04:15;93857.47;;;18.46;100.00
11345;BME280;5727;42.600;23.028;2022-08-04T01:07:04;93861.19;;;18.38;100.00
11345;BME280;5727;42.600;23.028;2022-08-04T01:09:43;93861.13;;;18.31;100.00
11345;BME280;5727;42.600;23.028;2022-08-04T01:12:33;93861.84;;;18.24;100.00
11345;BME280;5727;42.600;23.028;2022-08-04T01:15:09;93859.50;;;18.15;100.00
11345;BME280;5727;42.600;23.028;2022-08-04T01:17:58;93868.56;;;18.07;100.00
11345;BME280;5727;42.600;23.028;2022-08-04T01:20:32;93867.78;;;18.07;100.00
11345;BME280;5727;42.600;23.028;2022-08-04T01:23:26;93873.47;;;18.05;100.00
11345;BME280;5727;42.600;23.028;2022-08-04T01:26:21;93873.84;;;18.07;100.00
11345;BME280;5727;42.600;23.028;2022-08-04T01:29:04;93860.56;;;18.04;100.00
11345;BME280;5727;42.600;23.028;2022-08-04T01:31:37;93870.06;;;18.08;100.00
11345;BME280;5727;42.600;23.028;2022-08-04T01:34:08;93864.38;;;18.10;100.00
11345;BME280;5727;42.600;23.028;2022-08-04T01:36:42;93860.53;;;18.00;100.00
11345;BME280;5727;42.600;23.028;2022-08-04T01:39:11;93857.88;;;18.00;100.00
11345;BME280;5727;42.600;23.028;2022-08-04T01:41:54;93872.97;;;17.93;100.00
11345;BME280;5727;42.600;23.028;2022-08-04T01:44:26;93866.94;;;17.96;100.00
11345;BME280;5727;42.600;23.028;2022-08-04T01:46:53;93865.03;;;17.96;100.00
11345;BME280;5727;42.600;23.028;2022-08-04T01:49:21;93861.66;;;17.96;100.00
11345;BME280;5727;42.600;23.028;2022-08-04T01:51:49;93867.69;;;17.96;100.00
11345;BME280;5727;42.600;23.028;2022-08-04T01:54:17;93868.09;;;17.98;100.00
11345;BME280;5727;42.600;23.028;2022-08-04T01:56:46;93876.03;;;17.98;100.00
11345;BME280;5727;42.600;23.028;2022-08-04T01:59:17;93871.47;;;17.95;100.00
11345;BME280;5727;42.600;23.028;2022-08-04T02:01:46;93870.72;;;17.95;100.00
11345;BME280;5727;42.600;23.028;2022-08-04T02:04:13;93867.63;;;17.86;100.00
11345;BME280;5727;42.600;23.028;2022-08-04T02:06:57;93863.72;;;17.69;100.00
11345;BME280;5727;42.600;23.028;2022-08-04T02:09:37;93857.53;;;17.58;100.00
11345;BME280;5727;42.600;23.028;2022-08-04T02:12:08;93857.94;;;17.60;100.00
11345;BME280;5727;42.600;23.028;2022-08-04T02:14:44;93855.69;;;17.62;100.00
11345;BME280;5727;42.600;23.028;2022-08-04T02:17:28;93847.00;;;17.65;100.00
11345;BME280;5727;42.600;23.028;2022-08-04T02:20:04;93845.44;;;17.57;100.00
11345;BME280;5727;42.600;23.028;2022-08-04T02:22:33;93849.22;;;17.60;100.00
11345;BME280;5727;42.600;23.028;2022-08-04T02:25:04;93849.97;;;17.60;100.00
11345;BME280;5727;42.600;23.028;2022-08-04T02:27:55;93846.63;;;17.63;100.00
11345;BME280;5727;42.600;23.028;2022-08-04T02:30:28;93840.56;;;17.63;100.00
11345;BME280;5727;42.600;23.028;2022-08-04T02:33:01;93848.88;;;17.61;100.00
11345;BME280;5727;42.600;23.028;2022-08-04T02:35:34;93846.22;;;17.61;100.00
11345;BME280;5727;42.600;23.028;2022-08-04T02:38:10;93836.28;;;17.51;100.00
11345;BME280;5727;42.600;23.028;2022-08-04T02:40:38;93834.38;;;17.48;100.00
11345;BME280;5727;42.600;23.028;2022-08-04T02:43:07;93832.47;;;17.49;100.00
11345;BME280;5727;42.600;23.028;2022-08-04T02:45:35;93837.69;;;17.42;100.00
11345;BME280;5727;42.600;23.028;2022-08-04T02:48:04;93843.66;;;17.35;100.00
11345;BME280;5727;42.600;23.028;2022-08-04T02:50:34;93845.81;;;17.22;100.00
11345;BME280;5727;42.600;23.028;2022-08-04T02:53:03;93855.56;;;17.15;100.00
11345;BME280;5727;42.600;23.028;2022-08-04T02:55:30;93855.53;;;17.11;100.00
11345;BME280;5727;42.600;23.028;2022-08-04T02:58:01;93854.00;;;17.10;100.00
11345;BME280;5727;42.600;23.028;2022-08-04T03:00:29;93857.81;;;17.13;100.00
11345;BME280;5727;42.600;23.028;2022-08-04T03:03:06;93860.38;;;17.06;100.00
11345;BME280;5727;42.600;23.028;2022-08-04T03:05:43;93862.25;;;17.02;100.00
11345;BME280;5727;42.600;23.028;2022-08-04T03:11:27;93869.03;;;17.03;100.00
11345;BME280;5727;42.600;23.028;2022-08-04T03:14:09;93874.38;;;17.06;100.00
11345;BME280;5727;42.600;23.028;2022-08-04T03:16:59;93873.31;;;17.11;100.00
11345;BME280;5727;42.600;23.028;2022-08-04T03:23:02;93868.72;;;17.08;100.00
11345;BME280;5727;42.600;23.028;2022-08-04T03:29:02;93871.69;;;17.03;100.00
11345;BME280;5727;42.600;23.028;2022-08-04T03:34:53;93874.78;;;17.08;100.00
11345;BME280;5727;42.600;23.028;2022-08-04T03:37:49;93875.94;;;17.11;100.00
11345;BME280;5727;42.600;23.028;2022-08-04T03:40:34;93865.75;;;17.13;100.00
11345;BME280;5727;42.600;23.028;2022-08-04T03:43:27;93867.59;;;17.09;100.00
11345;BME280;5727;42.600;23.028;2022-08-04T03:46:40;93865.31;;;17.07;100.00
11345;BME280;5727;42.600;23.028;2022-08-04T03:49:35;93871.34;;;17.08;100.00
11345;BME280;5727;42.600;23.028;2022-08-04T03:52:12;93852.88;;;17.11;100.00
11345;BME280;5727;42.600;23.028;2022-08-04T03:55:24;93859.31;;;17.14;100.00
11345;BME280;5727;42.600;23.028;2022-08-04T04:01:11;93863.94;;;17.20;100.00
11345;BME280;5727;42.600;23.028;2022-08-04T04:03:56;93861.38;;;17.27;100.00
11345;BME280;5727;42.600;23.028;2022-08-04T04:07:03;93865.97;;;17.34;100.00
11345;BME280;5727;42.600;23.028;2022-08-04T04:16:11;93862.81;;;17.58;100.00
11345;BME280;5727;42.600;23.028;2022-08-04T04:22:11;93868.94;;;17.62;100.00
11345;BME280;5727;42.600;23.028;2022-08-04T04:24:55;93871.53;;;17.59;100.00
11345;BME280;5727;42.600;23.028;2022-08-04T04:27:34;93868.16;;;17.62;100.00
11345;BME280;5727;42.600;23.028;2022-08-04T04:30:07;93877.69;;;17.70;100.00
11345;BME280;5727;42.600;23.028;2022-08-04T04:33:00;93878.91;;;17.79;100.00
11345;BME280;5727;42.600;23.028;2022-08-04T04:35:34;93878.25;;;17.89;100.00
11345;BME280;5727;42.600;23.028;2022-08-04T04:38:19;93878.66;;;17.91;100.00
11345;BME280;5727;42.600;23.028;2022-08-04T04:40:55;93877.91;;;17.94;100.00
11345;BME280;5727;42.600;23.028;2022-08-04T04:43:43;93882.13;;;17.99;100.00
11345;BME280;5727;42.600;23.028;2022-08-04T04:46:29;93876.84;;;18.06;100.00
11345;BME280;5727;42.600;23.028;2022-08-04T04:49:04;93890.47;;;18.04;100.00
11345;BME280;5727;42.600;23.028;2022-08-04T04:51:39;93894.31;;;18.07;100.00
11345;BME280;5727;42.600;23.028;2022-08-04T04:54:16;93893.66;;;18.20;100.00
11345;BME280;5727;42.600;23.028;2022-08-04T04:56:47;93895.63;;;18.31;100.00
11345;BME280;5727;42.600;23.028;2022-08-04T04:59:20;93899.94;;;18.49;100.00
11345;BME280;5727;42.600;23.028;2022-08-04T05:02:09;93898.88;;;18.61;100.00
11345;BME280;5727;42.600;23.028;2022-08-04T05:11:22;93895.69;;;18.41;100.00
11345;BME280;5727;42.600;23.028;2022-08-04T05:13:51;93893.31;;;18.29;100.00
11345;BME280;5727;42.600;23.028;2022-08-04T05:16:24;93899.44;;;18.37;100.00
11345;BME280;5727;42.600;23.028;2022-08-04T05:19:15;93900.94;;;18.34;100.00
11345;BME280;5727;42.600;23.028;2022-08-04T05:21:47;93893.69;;;18.27;100.00
11345;BME280;5727;42.600;23.028;2022-08-04T05:24:17;93903.69;;;18.45;100.00
11345;BME280;5727;42.600;23.028;2022-08-04T05:26:47;93901.50;;;18.57;100.00
11345;BME280;5727;42.600;23.028;2022-08-04T05:29:20;93895.47;;;18.64;100.00
11345;BME280;5727;42.600;23.028;2022-08-04T05:31:53;93891.72;;;18.72;100.00
11345;BME280;5727;42.600;23.028;2022-08-04T05:34:25;93894.84;;;18.88;100.00
11345;BME280;5727;42.600;23.028;2022-08-04T05:36:58;93894.09;;;18.91;100.00
11345;BME280;5727;42.600;23.028;2022-08-04T05:39:28;93896.06;;;19.08;100.00
11345;BME280;5727;42.600;23.028;2022-08-04T05:41:57;93898.78;;;19.26;100.00
11345;BME280;5727;42.600;23.028;2022-08-04T05:44:26;93894.69;;;19.42;100.00
11345;BME280;5727;42.600;23.028;2022-08-04T05:46:55;93890.13;;;19.46;100.00
11345;BME280;5727;42.600;23.028;2022-08-04T05:49:26;93881.44;;;19.60;100.00
11345;BME280;5727;42.600;23.028;2022-08-04T05:51:56;93886.00;;;19.73;100.00
11345;BME280;5727;42.600;23.028;2022-08-04T05:54:25;93886.00;;;19.63;100.00
11345;BME280;5727;42.600;23.028;2022-08-04T05:56:53;93891.31;;;19.73;99.46
11345;BME280;5727;42.600;23.028;2022-08-04T05:59:21;93890.19;;;19.74;100.00
11345;BME280;5727;42.600;23.028;2022-08-04T06:01:50;93892.84;;;19.88;99.80
11345;BME280;5727;42.600;23.028;2022-08-04T06:04:20;93896.31;;;19.99;99.65
11345;BME280;5727;42.600;23.028;2022-08-04T06:06:50;93893.63;;;20.06;99.43
11345;BME280;5727;42.600;23.028;2022-08-04T06:09:18;93888.75;;;20.23;99.10
11345;BME280;5727;42.600;23.028;2022-08-04T06:11:45;93897.84;;;20.32;99.06
11345;BME280;5727;42.600;23.028;2022-08-04T06:14:13;93901.25;;;20.33;99.95
11345;BME280;5727;42.600;23.028;2022-08-04T06:16:43;93900.88;;;20.41;99.66
11345;BME280;5727;42.600;23.028;2022-08-04T06:19:12;93901.63;;;20.52;99.46
11345;BME280;5727;42.600;23.028;2022-08-04T06:21:42;93896.66;;;20.58;99.43
11345;BME280;5727;42.600;23.028;2022-08-04T06:24:15;93914.94;;;20.45;99.35
11345;BME280;5727;42.600;23.028;2022-08-04T06:26:43;93909.59;;;20.56;99.09
11345;BME280;5727;42.600;23.028;2022-08-04T06:29:12;93899.72;;;20.49;99.13
11345;BME280;5727;42.600;23.028;2022-08-04T06:31:47;93902.41;;;20.49;98.97
11345;BME280;5727;42.600;23.028;2022-08-04T06:34:24;93898.53;;;20.71;97.87
11345;BME280;5727;42.600;23.028;2022-08-04T06:36:52;93893.56;;;20.84;97.96
11345;BME280;5727;42.600;23.028;2022-08-04T06:39:21;93895.78;;;21.10;96.38
11345;BME280;5727;42.600;23.028;2022-08-04T06:41:49;93904.09;;;21.30;94.81
11345;BME280;5727;42.600;23.028;2022-08-04T06:44:18;93911.91;;;21.61;93.53
11345;BME280;5727;42.600;23.028;2022-08-04T06:46:46;93901.59;;;21.70;93.09
11345;BME280;5727;42.600;23.028;2022-08-04T06:49:13;93903.81;;;21.82;93.11
11345;BME280;5727;42.600;23.028;2022-08-04T06:51:43;93905.28;;;21.98;92.26
11345;BME280;5727;42.600;23.028;2022-08-04T06:54:11;93907.75;;;22.22;90.63
11345;BME280;5727;42.600;23.028;2022-08-04T06:56:39;93911.16;;;22.23;90.58
11345;BME280;5727;42.600;23.028;2022-08-04T06:59:10;93912.88;;;22.47;89.98
11345;BME280;5727;42.600;23.028;2022-08-04T07:01:38;93916.25;;;22.58;89.16
11345;BME280;5727;42.600;23.028;2022-08-04T07:04:06;93907.75;;;22.70;88.92
11345;BME280;5727;42.600;23.028;2022-08-04T07:06:33;93910.81;;;22.65;89.84
11345;BME280;5727;42.600;23.028;2022-08-04T07:09:00;93901.56;;;22.77;90.05
11345;BME280;5727;42.600;23.028;2022-08-04T07:11:28;93907.66;;;22.77;90.41
11345;BME280;5727;42.600;23.028;2022-08-04T07:13:58;93907.66;;;22.77;90.09
11345;BME280;5727;42.600;23.028;2022-08-04T07:16:25;93898.13;;;22.76;90.40
11345;BME280;5727;42.600;23.028;2022-08-04T07:18:54;93907.53;;;22.91;89.42
11345;BME280;5727;42.600;23.028;2022-08-04T07:21:21;93896.47;;;22.89;88.97
11345;BME280;5727;42.600;23.028;2022-08-04T07:23:48;93898.16;;;23.10;88.51
11345;BME280;5727;42.600;23.028;2022-08-04T07:26:15;93903.44;;;23.13;88.29
11345;BME280;5727;42.600;23.028;2022-08-04T07:28:44;93903.28;;;23.31;87.63
11345;BME280;5727;42.600;23.028;2022-08-04T07:31:14;93900.19;;;23.32;86.45
11345;BME280;5727;42.600;23.028;2022-08-04T07:33:42;93895.56;;;23.67;83.55
11345;BME280;5727;42.600;23.028;2022-08-04T07:36:10;93898.41;;;24.09;77.34
11345;BME280;5727;42.600;23.028;2022-08-04T07:38:39;93884.09;;;24.42;75.21
11345;BME280;5727;42.600;23.028;2022-08-04T07:41:06;93887.28;;;24.80;75.16
11345;BME280;5727;42.600;23.028;2022-08-04T07:43:35;93884.56;;;25.03;71.76
11345;BME280;5727;42.600;23.028;2022-08-04T07:46:02;93885.09;;;25.34;70.74
11345;BME280;5727;42.600;23.028;2022-08-04T07:48:30;93882.25;;;25.45;70.36
11345;BME280;5727;42.600;23.028;2022-08-04T07:50:57;93880.81;;;25.76;69.58
11345;BME280;5727;42.600;23.028;2022-08-04T07:53:25;93888.31;;;26.00;68.19
11345;BME280;5727;42.600;23.028;2022-08-04T07:55:52;93887.41;;;26.23;66.97
11345;BME280;5727;42.600;23.028;2022-08-04T07:58:20;93886.50;;;26.13;64.81
11345;BME280;5727;42.600;23.028;2022-08-04T08:00:47;93884.41;;;26.21;63.77
11345;BME280;5727;42.600;23.028;2022-08-04T08:03:14;93880.47;;;25.90;64.97
11345;BME280;5727;42.600;23.028;2022-08-04T08:05:43;93879.75;;;25.89;66.68
11345;BME280;5727;42.600;23.028;2022-08-04T08:08:09;93889.59;;;26.12;65.76
11345;BME280;5727;42.600;23.028;2022-08-04T08:10:37;93895.41;;;26.10;65.64
11345;BME280;5727;42.600;23.028;2022-08-04T08:13:06;93887.69;;;26.12;65.70
11345;BME280;5727;42.600;23.028;2022-08-04T08:15:33;93891.53;;;26.11;63.54
11345;BME280;5727;42.600;23.028;2022-08-04T08:18:00;93896.34;;;26.20;65.02
11345;BME280;5727;42.600;23.028;2022-08-04T08:20:29;93895.72;;;26.28;65.63
11345;BME280;5727;42.600;23.028;2022-08-04T08:23:00;93890.44;;;26.25;63.25
11345;BME280;5727;42.600;23.028;2022-08-04T08:25:29;93889.59;;;26.44;63.01
11345;BME280;5727;42.600;23.028;2022-08-04T08:27:56;93894.63;;;26.42;62.36
11345;BME280;5727;42.600;23.028;2022-08-04T08:30:23;93898.34;;;26.48;63.50
11345;BME280;5727;42.600;23.028;2022-08-04T08:32:50;93901.16;;;26.57;63.10
11345;BME280;5727;42.600;23.028;2022-08-04T08:35:17;93893.47;;;26.43;63.44
11345;BME280;5727;42.600;23.028;2022-08-04T08:37:49;93895.47;;;26.55;63.11
11345;BME280;5727;42.600;23.028;2022-08-04T08:40:29;93899.84;;;26.81;62.73
11345;BME280;5727;42.600;23.028;2022-08-04T08:43:18;93897.94;;;26.94;62.79
11345;BME280;5727;42.600;23.028;2022-08-04T08:46:07;93893.22;;;26.98;62.79
11345;BME280;5727;42.600;23.028;2022-08-04T08:51:58;93895.34;;;26.91;60.71
11345;BME280;5727;42.600;23.028;2022-08-04T08:54:53;93887.47;;;26.84;60.20
11345;BME280;5727;42.600;23.028;2022-08-04T08:57:45;93889.66;;;26.89;59.83
11345;BME280;5727;42.600;23.028;2022-08-04T09:00:20;93889.50;;;27.08;58.49
11345;BME280;5727;42.600;23.028;2022-08-04T09:09:03;93872.09;;;27.13;51.78
11345;BME280;5727;42.600;23.028;2022-08-04T09:11:39;93873.59;;;27.14;52.34
11345;BME280;5727;42.600;23.028;2022-08-04T09:14:16;93872.47;;;26.99;46.75
11345;BME280;5727;42.600;23.028;2022-08-04T09:16:51;93877.44;;;27.00;49.45
11345;BME280;5727;42.600;23.028;2022-08-04T09:22:13;93866.75;;;27.26;47.41
11345;BME280;5727;42.600;23.028;2022-08-04T09:24:48;93867.56;;;27.39;45.25
11345;BME280;5727;42.600;23.028;2022-08-04T09:27:19;93869.38;;;27.42;44.22
11345;BME280;5727;42.600;23.028;2022-08-04T09:30:00;93862.50;;;27.41;40.77
11345;BME280;5727;42.600;23.028;2022-08-04T09:32:33;93862.09;;;27.67;41.03
11345;BME280;5727;42.600;23.028;2022-08-04T09:35:12;93856.63;;;27.96;39.46
11345;BME280;5727;42.600;23.028;2022-08-04T09:37:50;93847.56;;;28.15;38.35
11345;BME280;5727;42.600;23.028;2022-08-04T09:40:25;93862.13;;;28.18;37.60
11345;BME280;5727;42.600;23.028;2022-08-04T09:43:08;93859.63;;;28.23;38.72
11345;BME280;5727;42.600;23.028;2022-08-04T09:45:44;93862.53;;;28.29;37.91
11345;BME280;5727;42.600;23.028;2022-08-04T09:48:18;93869.66;;;28.23;34.66
11345;BME280;5727;42.600;23.028;2022-08-04T09:50:49;93861.56;;;28.23;35.34
11345;BME280;5727;42.600;23.028;2022-08-04T09:53:30;93858.72;;;28.51;35.89
11345;BME280;5727;42.600;23.028;2022-08-04T09:56:07;93866.75;;;28.76;35.11
11345;BME280;5727;42.600;23.028;2022-08-04T09:58:43;93872.94;;;28.99;34.77
11345;BME280;5727;42.600;23.028;2022-08-04T10:01:16;93868.75;;;29.19;33.38
11345;BME280;5727;42.600;23.028;2022-08-04T10:03:48;93865.97;;;29.32;31.44
11345;BME280;5727;42.600;23.028;2022-08-04T10:06:39;93868.81;;;29.50;30.74
11345;BME280;5727;42.600;23.028;2022-08-04T10:09:24;93873.22;;;28.79;39.22
11345;BME280;5727;42.600;23.028;2022-08-04T10:12:04;93865.63;;;28.52;42.83
11345;BME280;5727;42.600;23.028;2022-08-04T10:14:39;93873.34;;;28.03;44.81
11345;BME280;5727;42.600;23.028;2022-08-04T10:17:30;93876.84;;;27.63;46.83
11345;BME280;5727;42.600;23.028;2022-08-04T10:20:07;93871.84;;;27.36;48.47
11345;BME280;5727;42.600;23.028;2022-08-04T10:22:36;93872.47;;;27.28;48.19
11345;BME280;5727;42.600;23.028;2022-08-04T10:25:16;93873.53;;;27.30;48.91
11345;BME280;5727;42.600;23.028;2022-08-04T10:27:47;93873.31;;;27.25;47.37
11345;BME280;5727;42.600;23.028;2022-08-04T10:30:18;93867.25;;;27.21;47.04
11345;BME280;5727;42.600;23.028;2022-08-04T10:32:49;93866.09;;;27.22;45.87
11345;BME280;5727;42.600;23.028;2022-08-04T10:35:20;93869.59;;;27.35;44.15
11345;BME280;5727;42.600;23.028;2022-08-04T10:37:56;93868.09;;;27.34;44.28
11345;BME280;5727;42.600;23.028;2022-08-04T10:40:31;93868.50;;;27.32;44.37
11345;BME280;5727;42.600;23.028;2022-08-04T10:43:14;93861.13;;;27.49;44.02
11345;BME280;5727;42.600;23.028;2022-08-04T10:45:49;93868.22;;;27.55;43.45
11345;BME280;5727;42.600;23.028;2022-08-04T10:48:22;93857.88;;;27.54;44.31
11345;BME280;5727;42.600;23.028;2022-08-04T10:51:03;93861.81;;;27.78;44.02
11345;BME280;5727;42.600;23.028;2022-08-04T10:53:33;93853.00;;;28.02;43.33
11345;BME280;5727;42.600;23.028;2022-08-04T10:56:12;93849.75;;;28.20;43.04
11345;BME280;5727;42.600;23.028;2022-08-04T10:58:45;93849.22;;;28.59;42.96
11345;BME280;5727;42.600;23.028;2022-08-04T11:01:19;93849.53;;;28.96;42.29
11345;BME280;5727;42.600;23.028;2022-08-04T11:03:55;93843.31;;;29.51;38.58
11345;BME280;5727;42.600;23.028;2022-08-04T11:06:23;93842.22;;;30.01;37.13
11345;BME280;5727;42.600;23.028;2022-08-04T11:08:53;93833.16;;;30.43;37.44
11345;BME280;5727;42.600;23.028;2022-08-04T11:11:24;93823.72;;;30.48;36.33
11345;BME280;5727;42.600;23.028;2022-08-04T11:13:59;93825.97;;;30.49;36.53
11345;BME280;5727;42.600;23.028;2022-08-04T11:16:31;93822.81;;;30.78;34.73
11345;BME280;5727;42.600;23.028;2022-08-04T11:19:12;93822.69;;;30.63;35.25
11345;BME280;5727;42.600;23.028;2022-08-04T11:21:48;93830.31;;;30.47;35.05
11345;BME280;5727;42.600;23.028;2022-08-04T11:24:21;93823.72;;;30.39;34.36
11345;BME280;5727;42.600;23.028;2022-08-04T11:26:55;93828.38;;;30.38;34.64
11345;BME280;5727;42.600;23.028;2022-08-04T11:29:27;93822.53;;;29.60;36.65
11345;BME280;5727;42.600;23.028;2022-08-04T11:31:57;93814.16;;;29.67;36.84
11345;BME280;5727;42.600;23.028;2022-08-04T11:34:27;93816.31;;;29.51;36.58
11345;BME280;5727;42.600;23.028;2022-08-04T11:36:58;93817.16;;;29.39;36.80
11345;BME280;5727;42.600;23.028;2022-08-04T11:54:11;93792.50;;;36.14;25.78
11345;BME280;5727;42.600;23.028;2022-08-04T11:56:38;93789.66;;;36.93;24.16
11345;BME280;5727;42.600;23.028;2022-08-04T11:59:06;93783.50;;;34.94;26.14
11345;BME280;5727;42.600;23.028;2022-08-04T12:01:40;93785.53;;;34.53;26.77
11345;BME280;5727;42.600;23.028;2022-08-04T12:04:21;93788.22;;;35.70;24.72
11345;BME280;5727;42.600;23.028;2022-08-04T12:06:54;93783.03;;;37.21;24.63
11345;BME280;5727;42.600;23.028;2022-08-04T12:09:28;93782.34;;;38.83;22.24
11345;BME280;5727;42.600;23.028;2022-08-04T12:12:03;93772.94;;;39.90;21.14
11345;BME280;5727;42.600;23.028;2022-08-04T12:14:42;93771.72;;;40.15;19.53
11345;BME280;5727;42.600;23.028;2022-08-04T12:17:15;93764.38;;;39.34;20.58
11345;BME280;5727;42.600;23.028;2022-08-04T12:19:49;93766.78;;;40.32;19.37
11345;BME280;5727;42.600;23.028;2022-08-04T12:22:19;93763.50;;;39.56;20.06
11345;BME280;5727;42.600;23.028;2022-08-04T12:24:52;93768.50;;;38.59;20.24
11345;BME280;5727;42.600;23.028;2022-08-04T12:27:24;93763.63;;;39.69;19.40
11345;BME280;5727;42.600;23.028;2022-08-04T12:29:54;93776.75;;;38.42;20.53
11345;BME280;5727;42.600;23.028;2022-08-04T12:32:24;93756.06;;;39.04;20.47
11345;BME280;5727;42.600;23.028;2022-08-04T12:34:58;93761.91;;;38.27;20.23
11345;BME280;5727;42.600;23.028;2022-08-04T12:37:34;93760.59;;;36.95;21.80
11345;BME280;5727;42.600;23.028;2022-08-04T12:40:12;93759.97;;;35.42;23.90
11345;BME280;5727;42.600;23.028;2022-08-04T12:42:44;93753.03;;;34.30;24.83
11345;BME280;5727;42.600;23.028;2022-08-04T12:45:14;93755.69;;;33.11;26.00
11345;BME280;5727;42.600;23.028;2022-08-04T12:47:44;93757.56;;;32.52;26.90
11345;BME280;5727;42.600;23.028;2022-08-04T12:50:13;93755.91;;;32.69;26.93
11345;BME280;5727;42.600;23.028;2022-08-04T12:52:47;93753.34;;;33.04;26.31
11345;BME280;5727;42.600;23.028;2022-08-04T12:55:16;93757.00;;;33.94;25.94
11345;BME280;5727;42.600;23.028;2022-08-04T12:57:46;93751.78;;;34.91;24.94
11345;BME280;5727;42.600;23.028;2022-08-04T13:00:23;93753.56;;;35.45;23.77
11345;BME280;5727;42.600;23.028;2022-08-04T13:02:50;93756.19;;;35.34;24.08
11345;BME280;5727;42.600;23.028;2022-08-04T13:05:20;93766.19;;;34.31;25.04
11345;BME280;5727;42.600;23.028;2022-08-04T13:07:49;93767.03;;;33.53;26.11
11345;BME280;5727;42.600;23.028;2022-08-04T13:10:21;93760.28;;;33.05;25.59
11345;BME280;5727;42.600;23.028;2022-08-04T13:12:54;93755.78;;;33.95;25.32
11345;BME280;5727;42.600;23.028;2022-08-04T13:15:23;93750.63;;;35.85;22.94
11345;BME280;5727;42.600;23.028;2022-08-04T13:17:53;93753.66;;;36.94;22.52
11345;BME280;5727;42.600;23.028;2022-08-04T13:20:26;93739.25;;;38.10;20.55
11345;BME280;5727;42.600;23.028;2022-08-04T13:23:04;93747.16;;;38.93;20.04
11345;BME280;5727;42.600;23.028;2022-08-04T13:25:34;93736.84;;;39.15;19.31
11345;BME280;5727;42.600;23.028;2022-08-04T13:28:05;93745.28;;;39.17;19.70
11345;BME280;5727;42.600;23.028;2022-08-04T13:30:34;93739.09;;;38.71;19.99
11345;BME280;5727;42.600;23.028;2022-08-04T13:33:02;93740.22;;;38.18;20.83
11345;BME280;5727;42.600;23.028;2022-08-04T13:35:31;93740.78;;;37.00;21.30
11345;BME280;5727;42.600;23.028;2022-08-04T13:37:59;93741.56;;;35.63;22.20
11345;BME280;5727;42.600;23.028;2022-08-04T13:40:27;93740.34;;;34.87;24.03
11345;BME280;5727;42.600;23.028;2022-08-04T13:42:56;93735.94;;;33.89;24.94
11345;BME280;5727;42.600;23.028;2022-08-04T13:45:24;93738.94;;;33.27;26.36
11345;BME280;5727;42.600;23.028;2022-08-04T13:47:58;93730.34;;;32.61;27.05
11345;BME280;5727;42.600;23.028;2022-08-04T13:50:26;93749.31;;;32.23;27.18
11345;BME280;5727;42.600;23.028;2022-08-04T13:52:57;93746.69;;;32.05;27.71
11345;BME280;5727;42.600;23.028;2022-08-04T13:55:27;93748.16;;;31.82;28.62
11345;BME280;5727;42.600;23.028;2022-08-04T13:58:00;93754.16;;;31.53;28.88
11345;BME280;5727;42.600;23.028;2022-08-04T14:00:46;93755.66;;;31.54;29.05
11345;BME280;5727;42.600;23.028;2022-08-04T14:03:20;93737.91;;;31.03;29.61
11345;BME280;5727;42.600;23.028;2022-08-04T14:06:10;93734.94;;;31.33;29.33
11345;BME280;5727;42.600;23.028;2022-08-04T14:08:48;93735.97;;;32.72;28.11
11345;BME280;5727;42.600;23.028;2022-08-04T14:11:17;93732.75;;;33.90;25.87
11345;BME280;5727;42.600;23.028;2022-08-04T14:13:47;93727.09;;;35.20;24.99
11345;BME280;5727;42.600;23.028;2022-08-04T14:16:19;93730.94;;;36.02;23.83
11345;BME280;5727;42.600;23.028;2022-08-04T14:18:48;93721.81;;;36.80;22.56
11345;BME280;5727;42.600;23.028;2022-08-04T14:21:22;93723.44;;;37.36;21.96
11345;BME280;5727;42.600;23.028;2022-08-04T14:23:51;93718.47;;;37.51;21.23
11345;BME280;5727;42.600;23.028;2022-08-04T14:26:21;93716.69;;;37.26;21.34
11345;BME280;5727;42.600;23.028;2022-08-04T14:28:50;93719.94;;;37.19;21.96
11345;BME280;5727;42.600;23.028;2022-08-04T14:31:19;93722.81;;;36.18;22.01
11345;BME280;5727;42.600;23.028;2022-08-04T14:33:48;93724.63;;;35.48;23.35